Casa Grande Municipal Airport

About
Name: Casa Grande Municipal Airport
Identifier:  CGZ/KCGZ
Local Time:  20. Aug 07:44 MST
Location
Casa Grande
  United States

Flights per Day
0 flights
Distance: 48km (29mi)
Punctuality
0% (0 flights per day delayed)
Delay Average: 44 minutes
Current Weather
 26 C (Humidity: 24%)
  0kt (0km/h / 0mph) from 0°
  16km (10 mi.)
 
 METAR KCGZ 201356Z AUTO 00000KT 10SM CLR 26/04 A2990 RMK AO2 SLP105 T02610044

Current Flights

Departures
Number Departure To Airline
Arrivals
Number Arrival From Airline

Current Delays

Departures
N/A
Arrivals
N/A

Destinations

Top Destinations
Airport Flights
per week
Seats
per week
  Mesa (MSC) 1 - 0 0
  Phoenix (DVT) 1 - 0 0
  Phoenix (AZA) 1 - 0 0
  Phoenix (PHX) 0 - 0 0
  Tucson (TUS) 0 - 0 0
  New Braunfels (QQZ) 0 - 0 0
  Phoenix (GYR) 0 - 0 0
  Wink (INK) 0 - 0 0
  Scottsdale (SCF) 0 - 0 0
  Santa Rosa (STS) 0 - 0 0
  Victorville (VCV) 0 - 0 0

Airlines & Planes

Top Airlines
Airline Flights
per Day
Seats
per Day
Jet Charter Inc ( Franklin Lakes Nj ) 0 -
Nordwind Airlines 0 -
  Flybe Nordic 0 -
  Nolinor Aviation 0 -
  National Airlines 0 -
Top Plane Types
Model Flights Seats
Cessna C172 0.5/day - 0
Piper PA-28RT-201T 0.1/day - 0
Cessna C182 0.1/day - 0
Eurocopter Airbus Helicopters H125 0.1/day - 0
Cessna C25A 0.0/day - 0